sensor_id;sensor_type;location;lat;lon;timestamp;pressure;altitude;pressure_sealevel;temperature;humidity
42771;BME280;28426;42.872;25.314;2022-11-03T00:01:10;97373.34;;;9.94;54.79
42771;BME280;28426;42.872;25.314;2022-11-03T00:03:41;97369.47;;;9.25;58.73
42771;BME280;28426;42.872;25.314;2022-11-03T00:06:12;97380.34;;;8.82;59.88
42771;BME280;28426;42.872;25.314;2022-11-03T00:08:45;97380.28;;;8.49;60.97
42771;BME280;28426;42.872;25.314;2022-11-03T00:11:18;97380.75;;;8.28;61.65
42771;BME280;28426;42.872;25.314;2022-11-03T00:13:49;97390.03;;;8.15;62.45
42771;BME280;28426;42.872;25.314;2022-11-03T00:16:19;97382.19;;;8.14;62.63
42771;BME280;28426;42.872;25.314;2022-11-03T00:18:50;97395.69;;;8.20;63.05
42771;BME280;28426;42.872;25.314;2022-11-03T00:21:22;97391.53;;;8.26;62.60
42771;BME280;28426;42.872;25.314;2022-11-03T00:23:55;97387.06;;;8.27;62.33
42771;BME280;28426;42.872;25.314;2022-11-03T00:26:27;97397.34;;;8.30;62.55
42771;BME280;28426;42.872;25.314;2022-11-03T00:28:59;97388.41;;;8.31;62.59
42771;BME280;28426;42.872;25.314;2022-11-03T00:31:31;97388.72;;;8.28;62.56
42771;BME280;28426;42.872;25.314;2022-11-03T00:34:03;97397.72;;;8.27;62.73
42771;BME280;28426;42.872;25.314;2022-11-03T00:36:34;97397.72;;;8.27;62.43
42771;BME280;28426;42.872;25.314;2022-11-03T00:39:09;97397.34;;;8.30;62.60
42771;BME280;28426;42.872;25.314;2022-11-03T00:41:40;97394.03;;;8.28;62.69
42771;BME280;28426;42.872;25.314;2022-11-03T00:44:10;97394.19;;;8.26;62.49
42771;BME280;28426;42.872;25.314;2022-11-03T00:46:41;97398.69;;;8.25;62.35
42771;BME280;28426;42.872;25.314;2022-11-03T00:49:11;97401.03;;;8.29;62.24
42771;BME280;28426;42.872;25.314;2022-11-03T00:51:42;97395.69;;;8.29;62.32
42771;BME280;28426;42.872;25.314;2022-11-03T00:54:15;97398.34;;;8.29;62.31
42771;BME280;28426;42.872;25.314;2022-11-03T00:56:45;97392.88;;;8.30;62.79
42771;BME280;28426;42.872;25.314;2022-11-03T00:59:16;97394.53;;;8.31;62.13
42771;BME280;28426;42.872;25.314;2022-11-03T01:01:46;97393.72;;;8.31;62.24
42771;BME280;28426;42.872;25.314;2022-11-03T01:04:17;97393.38;;;8.34;62.23
42771;BME280;28426;42.872;25.314;2022-11-03T01:07:01;97399.22;;;8.37;61.99
42771;BME280;28426;42.872;25.314;2022-11-03T01:09:37;97405.34;;;8.38;61.50
42771;BME280;28426;42.872;25.314;2022-11-03T01:12:12;97403.38;;;8.40;61.59
42771;BME280;28426;42.872;25.314;2022-11-03T01:14:44;97400.88;;;8.38;61.98
42771;BME280;28426;42.872;25.314;2022-11-03T01:17:17;97405.03;;;8.41;61.82
42771;BME280;28426;42.872;25.314;2022-11-03T01:19:48;97403.03;;;8.43;62.32
42771;BME280;28426;42.872;25.314;2022-11-03T01:22:20;97404.09;;;8.67;61.21
42771;BME280;28426;42.872;25.314;2022-11-03T01:24:53;97391.13;;;8.72;59.06
42771;BME280;28426;42.872;25.314;2022-11-03T01:27:24;97399.91;;;8.48;62.06
42771;BME280;28426;42.872;25.314;2022-11-03T01:29:55;97404.50;;;8.21;62.94
42771;BME280;28426;42.872;25.314;2022-11-03T01:32:25;97402.47;;;8.06;63.07
42771;BME280;28426;42.872;25.314;2022-11-03T01:34:57;97394.66;;;8.05;62.69
42771;BME280;28426;42.872;25.314;2022-11-03T01:37:29;97396.50;;;8.13;62.06
42771;BME280;28426;42.872;25.314;2022-11-03T01:40:02;97399.34;;;8.19;61.88
42771;BME280;28426;42.872;25.314;2022-11-03T01:42:33;97395.69;;;8.29;61.67
42771;BME280;28426;42.872;25.314;2022-11-03T01:45:03;97401.19;;;8.35;61.45
42771;BME280;28426;42.872;25.314;2022-11-03T01:47:35;97409.88;;;8.37;61.72
42771;BME280;28426;42.872;25.314;2022-11-03T01:50:09;97403.38;;;8.40;61.28
42771;BME280;28426;42.872;25.314;2022-11-03T01:52:42;97409.75;;;8.56;61.22
42771;BME280;28426;42.872;25.314;2022-11-03T01:55:20;97396.78;;;8.69;57.95
42771;BME280;28426;42.872;25.314;2022-11-03T01:57:54;97412.34;;;8.47;60.27
42771;BME280;28426;42.872;25.314;2022-11-03T02:00:27;97412.78;;;8.18;62.84
42771;BME280;28426;42.872;25.314;2022-11-03T02:02:58;97411.47;;;8.22;62.44
42771;BME280;28426;42.872;25.314;2022-11-03T02:05:29;97422.31;;;8.37;62.11
42771;BME280;28426;42.872;25.314;2022-11-03T02:08:04;97416.06;;;8.55;61.32
42771;BME280;28426;42.872;25.314;2022-11-03T02:10:39;97416.91;;;8.72;60.95
42771;BME280;28426;42.872;25.314;2022-11-03T02:13:15;97418.41;;;8.91;60.71
42771;BME280;28426;42.872;25.314;2022-11-03T02:16:07;97419.91;;;9.10;59.76
42771;BME280;28426;42.872;25.314;2022-11-03T02:18:38;97428.03;;;9.25;59.41
42771;BME280;28426;42.872;25.314;2022-11-03T02:21:15;97430.66;;;9.42;59.02
42771;BME280;28426;42.872;25.314;2022-11-03T02:23:52;97436.13;;;9.57;58.40
42771;BME280;28426;42.872;25.314;2022-11-03T02:26:28;97424.94;;;9.70;57.95
42771;BME280;28426;42.872;25.314;2022-11-03T02:28:59;97425.56;;;9.80;57.71
42771;BME280;28426;42.872;25.314;2022-11-03T02:31:35;97431.53;;;9.91;57.13
42771;BME280;28426;42.872;25.314;2022-11-03T02:34:11;97437.84;;;9.98;56.73
42771;BME280;28426;42.872;25.314;2022-11-03T02:36:47;97436.78;;;10.07;56.56
42771;BME280;28426;42.872;25.314;2022-11-03T02:39:22;97441.44;;;10.14;56.48
42771;BME280;28426;42.872;25.314;2022-11-03T02:41:57;97448.06;;;10.18;56.22
42771;BME280;28426;42.872;25.314;2022-11-03T02:44:28;97445.06;;;10.21;55.98
42771;BME280;28426;42.872;25.314;2022-11-03T02:47:00;97433.38;;;10.22;55.88
42771;BME280;28426;42.872;25.314;2022-11-03T02:49:37;97435.88;;;10.24;55.59
42771;BME280;28426;42.872;25.314;2022-11-03T02:52:36;97439.41;;;10.24;55.61
42771;BME280;28426;42.872;25.314;2022-11-03T02:55:11;97442.06;;;10.24;55.18
42771;BME280;28426;42.872;25.314;2022-11-03T02:57:52;97450.06;;;10.24;55.24
42771;BME280;28426;42.872;25.314;2022-11-03T03:00:24;97443.22;;;10.21;55.05
42771;BME280;28426;42.872;25.314;2022-11-03T03:02:58;97443.22;;;10.21;54.90
42771;BME280;28426;42.872;25.314;2022-11-03T03:05:34;97452.41;;;10.19;55.08
42771;BME280;28426;42.872;25.314;2022-11-03T03:08:07;97452.41;;;10.19;55.02
42771;BME280;28426;42.872;25.314;2022-11-03T03:10:42;97455.06;;;10.19;55.01
42771;BME280;28426;42.872;25.314;2022-11-03T03:13:18;97446.25;;;10.18;54.87
42771;BME280;28426;42.872;25.314;2022-11-03T03:15:53;97451.75;;;10.17;55.02
42771;BME280;28426;42.872;25.314;2022-11-03T03:18:30;97458.25;;;10.14;54.70
42771;BME280;28426;42.872;25.314;2022-11-03T03:21:11;97455.78;;;10.13;54.77
42771;BME280;28426;42.872;25.314;2022-11-03T03:23:46;97460.25;;;10.12;54.69
42771;BME280;28426;42.872;25.314;2022-11-03T03:26:21;97458.59;;;10.11;54.73
42771;BME280;28426;42.872;25.314;2022-11-03T03:28:58;97463.28;;;10.09;54.74
42771;BME280;28426;42.872;25.314;2022-11-03T03:31:34;97462.63;;;10.07;54.86
42771;BME280;28426;42.872;25.314;2022-11-03T03:34:07;97468.31;;;10.04;54.61
42771;BME280;28426;42.872;25.314;2022-11-03T03:36:58;97469.47;;;10.01;54.79
42771;BME280;28426;42.872;25.314;2022-11-03T03:39:32;97474.31;;;9.98;54.90
42771;BME280;28426;42.872;25.314;2022-11-03T03:42:07;97484.50;;;9.94;55.20
42771;BME280;28426;42.872;25.314;2022-11-03T03:44:42;97486.84;;;9.89;55.11
42771;BME280;28426;42.872;25.314;2022-11-03T03:47:17;97494.53;;;9.84;55.33
42771;BME280;28426;42.872;25.314;2022-11-03T03:49:48;97499.53;;;9.78;55.16
42771;BME280;28426;42.872;25.314;2022-11-03T03:52:19;97495.88;;;9.71;55.54
42771;BME280;28426;42.872;25.314;2022-11-03T03:54:50;97507.88;;;9.67;55.45
42771;BME280;28426;42.872;25.314;2022-11-03T03:57:22;97502.25;;;9.62;55.40
42771;BME280;28426;42.872;25.314;2022-11-03T03:59:56;97503.41;;;9.59;55.70
42771;BME280;28426;42.872;25.314;2022-11-03T04:02:26;97497.56;;;9.55;55.59
42771;BME280;28426;42.872;25.314;2022-11-03T04:04:57;97503.25;;;9.52;55.80
42771;BME280;28426;42.872;25.314;2022-11-03T04:07:29;97495.59;;;9.49;55.89
42771;BME280;28426;42.872;25.314;2022-11-03T04:10:11;97497.09;;;9.44;55.72
42771;BME280;28426;42.872;25.314;2022-11-03T04:12:43;97500.91;;;9.41;56.05
42771;BME280;28426;42.872;25.314;2022-11-03T04:15:29;97489.09;;;9.35;56.24
42771;BME280;28426;42.872;25.314;2022-11-03T04:18:24;97490.44;;;9.31;56.21
42771;BME280;28426;42.872;25.314;2022-11-03T04:21:09;97497.09;;;9.27;56.20
42771;BME280;28426;42.872;25.314;2022-11-03T04:23:53;97498.09;;;9.26;56.56
42771;BME280;28426;42.872;25.314;2022-11-03T04:26:25;97500.09;;;9.24;56.49
42771;BME280;28426;42.872;25.314;2022-11-03T04:28:56;97501.44;;;9.20;56.39
42771;BME280;28426;42.872;25.314;2022-11-03T04:31:33;97492.09;;;9.15;56.93
42771;BME280;28426;42.872;25.314;2022-11-03T04:34:09;97500.59;;;9.11;56.79
42771;BME280;28426;42.872;25.314;2022-11-03T04:36:41;97495.59;;;9.08;56.70
42771;BME280;28426;42.872;25.314;2022-11-03T04:39:15;97503.06;;;9.04;57.02
42771;BME280;28426;42.872;25.314;2022-11-03T04:41:47;97505.41;;;8.99;56.88
42771;BME280;28426;42.872;25.314;2022-11-03T04:44:18;97504.91;;;8.95;57.24
42771;BME280;28426;42.872;25.314;2022-11-03T04:46:53;97505.22;;;8.92;57.35
42771;BME280;28426;42.872;25.314;2022-11-03T04:49:23;97509.91;;;8.90;57.07
42771;BME280;28426;42.872;25.314;2022-11-03T04:51:54;97503.25;;;8.86;57.82
42771;BME280;28426;42.872;25.314;2022-11-03T04:54:25;97510.88;;;8.81;57.46
42771;BME280;28426;42.872;25.314;2022-11-03T04:56:56;97507.88;;;8.75;57.59
42771;BME280;28426;42.872;25.314;2022-11-03T04:59:26;97505.53;;;8.72;57.73
42771;BME280;28426;42.872;25.314;2022-11-03T05:02:00;97509.69;;;8.67;57.45
42771;BME280;28426;42.872;25.314;2022-11-03T05:04:31;97510.53;;;8.67;57.87
42771;BME280;28426;42.872;25.314;2022-11-03T05:07:01;97519.47;;;8.66;57.66
42771;BME280;28426;42.872;25.314;2022-11-03T05:09:32;97509.69;;;8.67;57.84
42771;BME280;28426;42.872;25.314;2022-11-03T05:12:08;97513.50;;;8.64;58.02
42771;BME280;28426;42.872;25.314;2022-11-03T05:14:39;97526.34;;;8.69;57.78
42771;BME280;28426;42.872;25.314;2022-11-03T05:17:20;97529.81;;;8.69;58.17
42771;BME280;28426;42.872;25.314;2022-11-03T05:19:54;97530.97;;;8.67;57.90
42771;BME280;28426;42.872;25.314;2022-11-03T05:22:29;97532.78;;;8.66;58.20
42771;BME280;28426;42.872;25.314;2022-11-03T05:25:21;97540.94;;;8.65;58.14
42771;BME280;28426;42.872;25.314;2022-11-03T05:27:56;97540.09;;;8.64;57.96
42771;BME280;28426;42.872;25.314;2022-11-03T05:30:27;97541.09;;;8.63;58.30
42771;BME280;28426;42.872;25.314;2022-11-03T05:33:00;97542.91;;;8.62;57.98
42771;BME280;28426;42.872;25.314;2022-11-03T05:35:31;97552.75;;;8.62;58.04
42771;BME280;28426;42.872;25.314;2022-11-03T05:38:01;97553.56;;;8.62;58.07
42771;BME280;28426;42.872;25.314;2022-11-03T05:40:35;97550.91;;;8.62;58.07
42771;BME280;28426;42.872;25.314;2022-11-03T05:43:07;97550.75;;;8.64;58.27
42771;BME280;28426;42.872;25.314;2022-11-03T05:45:40;97556.72;;;8.66;58.28
42771;BME280;28426;42.872;25.314;2022-11-03T05:48:17;97557.25;;;8.70;58.39
42771;BME280;28426;42.872;25.314;2022-11-03T05:50:50;97564.06;;;8.72;58.32
42771;BME280;28426;42.872;25.314;2022-11-03T05:53:27;97564.25;;;8.79;58.60
42771;BME280;28426;42.872;25.314;2022-11-03T05:55:59;97574.25;;;8.85;58.32
42771;BME280;28426;42.872;25.314;2022-11-03T05:58:34;97565.44;;;8.93;58.23
42771;BME280;28426;42.872;25.314;2022-11-03T06:01:11;97559.97;;;9.03;58.25
42771;BME280;28426;42.872;25.314;2022-11-03T06:03:46;97566.16;;;9.12;57.79
42771;BME280;28426;42.872;25.314;2022-11-03T06:06:20;97573.50;;;9.26;58.06
42771;BME280;28426;42.872;25.314;2022-11-03T06:08:59;97573.00;;;9.39;58.00
42771;BME280;28426;42.872;25.314;2022-11-03T06:11:35;97571.34;;;9.55;57.55
42771;BME280;28426;42.872;25.314;2022-11-03T06:14:13;97570.66;;;9.70;57.32
42771;BME280;28426;42.872;25.314;2022-11-03T06:16:52;97581.13;;;9.88;57.25
42771;BME280;28426;42.872;25.314;2022-11-03T06:19:30;97577.44;;;10.05;56.89
42771;BME280;28426;42.872;25.314;2022-11-03T06:22:07;97581.22;;;10.28;56.70
42771;BME280;28426;42.872;25.314;2022-11-03T06:24:40;97578.69;;;10.51;56.48
42771;BME280;28426;42.872;25.314;2022-11-03T06:27:13;97587.94;;;10.72;56.13
42771;BME280;28426;42.872;25.314;2022-11-03T06:29:49;97575.53;;;10.88;55.80
42771;BME280;28426;42.872;25.314;2022-11-03T06:32:21;97583.72;;;11.09;55.52
42771;BME280;28426;42.872;25.314;2022-11-03T06:34:57;97587.59;;;11.30;55.27
42771;BME280;28426;42.872;25.314;2022-11-03T06:37:30;97585.75;;;11.54;54.89
42771;BME280;28426;42.872;25.314;2022-11-03T06:40:32;97588.22;;;11.79;54.12
42771;BME280;28426;42.872;25.314;2022-11-03T06:43:21;97599.38;;;12.06;53.73
42771;BME280;28426;42.872;25.314;2022-11-03T06:45:56;97602.44;;;12.33;53.84
42771;BME280;28426;42.872;25.314;2022-11-03T06:48:28;97602.81;;;12.60;53.29
42771;BME280;28426;42.872;25.314;2022-11-03T06:51:03;97602.13;;;12.88;52.64
42771;BME280;28426;42.872;25.314;2022-11-03T06:53:43;97596.88;;;13.17;52.35
42771;BME280;28426;42.872;25.314;2022-11-03T06:56:15;97594.56;;;13.51;51.85
42771;BME280;28426;42.872;25.314;2022-11-03T06:58:49;97595.06;;;13.83;51.37
42771;BME280;28426;42.872;25.314;2022-11-03T07:01:24;97594.28;;;14.18;51.01
42771;BME280;28426;42.872;25.314;2022-11-03T07:03:57;97591.78;;;14.51;50.29
42771;BME280;28426;42.872;25.314;2022-11-03T07:06:34;97597.56;;;14.84;49.58
42771;BME280;28426;42.872;25.314;2022-11-03T07:09:06;97596.44;;;15.20;49.08
42771;BME280;28426;42.872;25.314;2022-11-03T07:11:44;97604.56;;;15.54;47.63
42771;BME280;28426;42.872;25.314;2022-11-03T07:14:18;97606.09;;;15.97;43.61
42771;BME280;28426;42.872;25.314;2022-11-03T07:16:52;97590.63;;;16.72;42.13
42771;BME280;28426;42.872;25.314;2022-11-03T07:19:26;97594.06;;;17.38;39.89
42771;BME280;28426;42.872;25.314;2022-11-03T07:22:02;97595.16;;;17.88;38.66
42771;BME280;28426;42.872;25.314;2022-11-03T07:24:37;97597.47;;;18.17;37.76
42771;BME280;28426;42.872;25.314;2022-11-03T07:27:20;97599.63;;;18.27;37.47
42771;BME280;28426;42.872;25.314;2022-11-03T07:29:58;97597.00;;;18.20;36.73
42771;BME280;28426;42.872;25.314;2022-11-03T07:32:31;97600.22;;;18.10;37.44
42771;BME280;28426;42.872;25.314;2022-11-03T07:35:20;97598.25;;;17.92;38.19
42771;BME280;28426;42.872;25.314;2022-11-03T07:38:01;97605.66;;;17.78;37.71
42771;BME280;28426;42.872;25.314;2022-11-03T07:40:33;97604.22;;;17.75;38.13
42771;BME280;28426;42.872;25.314;2022-11-03T07:43:12;97609.56;;;17.82;37.80
42771;BME280;28426;42.872;25.314;2022-11-03T07:45:47;97603.06;;;17.90;37.30
42771;BME280;28426;42.872;25.314;2022-11-03T07:48:20;97599.94;;;17.86;38.82
42771;BME280;28426;42.872;25.314;2022-11-03T07:50:54;97591.47;;;17.83;39.16
42771;BME280;28426;42.872;25.314;2022-11-03T07:53:32;97589.81;;;17.82;39.12
42771;BME280;28426;42.872;25.314;2022-11-03T07:56:14;97603.53;;;17.80;39.66
42771;BME280;28426;42.872;25.314;2022-11-03T07:58:46;97597.56;;;17.78;39.61
42771;BME280;28426;42.872;25.314;2022-11-03T08:01:24;97588.81;;;17.76;39.29
42771;BME280;28426;42.872;25.314;2022-11-03T08:04:00;97580.94;;;17.74;39.78
42771;BME280;28426;42.872;25.314;2022-11-03T08:06:32;97582.22;;;17.72;39.38
42771;BME280;28426;42.872;25.314;2022-11-03T08:09:05;97587.00;;;17.70;39.74
42771;BME280;28426;42.872;25.314;2022-11-03T08:11:36;97583.47;;;17.69;39.71
42771;BME280;28426;42.872;25.314;2022-11-03T08:14:06;97578.91;;;17.70;39.86
42771;BME280;28426;42.872;25.314;2022-11-03T08:16:37;97577.66;;;17.72;40.27
42771;BME280;28426;42.872;25.314;2022-11-03T08:19:08;97576.38;;;17.75;40.17
42771;BME280;28426;42.872;25.314;2022-11-03T08:21:39;97580.50;;;17.77;40.21
42771;BME280;28426;42.872;25.314;2022-11-03T08:24:12;97580.88;;;17.81;40.15
42771;BME280;28426;42.872;25.314;2022-11-03T08:26:42;97579.63;;;17.84;40.19
42771;BME280;28426;42.872;25.314;2022-11-03T08:29:13;97577.16;;;17.82;39.63
42771;BME280;28426;42.872;25.314;2022-11-03T08:31:44;97572.78;;;17.81;39.62
42771;BME280;28426;42.872;25.314;2022-11-03T08:34:14;97579.25;;;17.80;39.63
42771;BME280;28426;42.872;25.314;2022-11-03T08:36:45;97568.88;;;17.77;39.65
42771;BME280;28426;42.872;25.314;2022-11-03T08:39:18;97569.34;;;17.74;39.40
42771;BME280;28426;42.872;25.314;2022-11-03T08:41:49;97571.41;;;17.72;39.57
42771;BME280;28426;42.872;25.314;2022-11-03T08:44:20;97566.47;;;17.69;39.81
42771;BME280;28426;42.872;25.314;2022-11-03T08:46:50;97562.72;;;17.70;39.61
42771;BME280;28426;42.872;25.314;2022-11-03T08:49:21;97562.94;;;17.68;39.71
42771;BME280;28426;42.872;25.314;2022-11-03T08:51:51;97567.28;;;17.69;39.80
42771;BME280;28426;42.872;25.314;2022-11-03T08:54:24;97561.66;;;17.71;39.80
42771;BME280;28426;42.872;25.314;2022-11-03T08:56:55;97565.81;;;17.73;39.78
42771;BME280;28426;42.872;25.314;2022-11-03T08:59:25;97558.34;;;17.75;39.96
42771;BME280;28426;42.872;25.314;2022-11-03T09:01:56;97558.91;;;17.77;39.66
42771;BME280;28426;42.872;25.314;2022-11-03T09:04:27;97557.44;;;17.82;39.64
42771;BME280;28426;42.872;25.314;2022-11-03T09:06:57;97553.03;;;17.87;39.99
42771;BME280;28426;42.872;25.314;2022-11-03T09:09:30;97556.53;;;17.88;39.35
42771;BME280;28426;42.872;25.314;2022-11-03T09:12:21;97550.50;;;17.93;39.71
42771;BME280;28426;42.872;25.314;2022-11-03T09:14:52;97546.72;;;17.94;39.42
42771;BME280;28426;42.872;25.314;2022-11-03T09:17:23;97546.31;;;17.97;39.75
42771;BME280;28426;42.872;25.314;2022-11-03T09:19:53;97538.78;;;17.99;39.44
42771;BME280;28426;42.872;25.314;2022-11-03T09:22:24;97541.06;;;18.02;39.77
42771;BME280;28426;42.872;25.314;2022-11-03T09:24:57;97539.56;;;18.06;40.01
42771;BME280;28426;42.872;25.314;2022-11-03T09:27:29;97531.66;;;18.11;39.62
42771;BME280;28426;42.872;25.314;2022-11-03T09:29:59;97534.50;;;18.16;39.52
42771;BME280;28426;42.872;25.314;2022-11-03T09:32:40;97533.63;;;18.23;39.84
42771;BME280;28426;42.872;25.314;2022-11-03T09:35:11;97518.59;;;18.27;39.47
42771;BME280;28426;42.872;25.314;2022-11-03T09:37:43;97516.88;;;18.33;39.69
42771;BME280;28426;42.872;25.314;2022-11-03T09:40:17;97512.66;;;18.37;39.51
42771;BME280;28426;42.872;25.314;2022-11-03T09:42:48;97517.41;;;18.41;39.14
42771;BME280;28426;42.872;25.314;2022-11-03T09:45:19;97508.03;;;18.44;39.09
42771;BME280;28426;42.872;25.314;2022-11-03T09:47:50;97502.16;;;18.47;39.13
42771;BME280;28426;42.872;25.314;2022-11-03T09:50:21;97500.91;;;18.50;39.10
42771;BME280;28426;42.872;25.314;2022-11-03T09:52:51;97494.44;;;18.51;38.85
42771;BME280;28426;42.872;25.314;2022-11-03T09:55:25;97497.50;;;18.54;38.80
42771;BME280;28426;42.872;25.314;2022-11-03T09:58:00;97483.53;;;18.58;38.83
42771;BME280;28426;42.872;25.314;2022-11-03T10:00:33;97490.72;;;18.64;38.92
42771;BME280;28426;42.872;25.314;2022-11-03T10:03:03;97478.41;;;18.68;38.91
42771;BME280;28426;42.872;25.314;2022-11-03T10:05:35;97478.78;;;18.72;38.94
42771;BME280;28426;42.872;25.314;2022-11-03T10:08:10;97479.97;;;18.76;38.66
42771;BME280;28426;42.872;25.314;2022-11-03T10:10:51;97480.09;;;18.81;39.13
42771;BME280;28426;42.872;25.314;2022-11-03T10:13:28;97473.78;;;18.87;39.05
42771;BME280;28426;42.872;25.314;2022-11-03T10:16:01;97469.09;;;18.94;39.14
42771;BME280;28426;42.872;25.314;2022-11-03T10:18:33;97466.28;;;19.01;38.54
42771;BME280;28426;42.872;25.314;2022-11-03T10:21:06;97465.19;;;19.09;38.63
42771;BME280;28426;42.872;25.314;2022-11-03T10:23:41;97450.97;;;19.14;38.60
42771;BME280;28426;42.872;25.314;2022-11-03T10:26:16;97444.03;;;19.18;38.35
42771;BME280;28426;42.872;25.314;2022-11-03T10:28:58;97441.00;;;19.26;37.96
42771;BME280;28426;42.872;25.314;2022-11-03T10:31:32;97444.16;;;19.35;38.36
42771;BME280;28426;42.872;25.314;2022-11-03T10:34:04;97433.00;;;19.43;37.82
42771;BME280;28426;42.872;25.314;2022-11-03T10:36:35;97431.00;;;19.51;38.25
42771;BME280;28426;42.872;25.314;2022-11-03T10:39:23;97427.47;;;19.62;37.75
42771;BME280;28426;42.872;25.314;2022-11-03T10:42:01;97430.44;;;19.72;37.43
42771;BME280;28426;42.872;25.314;2022-11-03T10:44:31;97422.75;;;19.81;37.44
42771;BME280;28426;42.872;25.314;2022-11-03T10:47:03;97419.22;;;19.93;36.77
42771;BME280;28426;42.872;25.314;2022-11-03T10:49:35;97420.28;;;20.04;37.23
42771;BME280;28426;42.872;25.314;2022-11-03T10:52:18;97419.44;;;20.15;36.58
42771;BME280;28426;42.872;25.314;2022-11-03T10:54:51;97411.50;;;20.25;36.32
42771;BME280;28426;42.872;25.314;2022-11-03T10:57:26;97402.53;;;20.37;36.25
42771;BME280;28426;42.872;25.314;2022-11-03T11:00:00;97403.31;;;20.49;35.80
42771;BME280;28426;42.872;25.314;2022-11-03T11:02:31;97394.78;;;20.58;35.52
42771;BME280;28426;42.872;25.314;2022-11-03T11:05:12;97386.00;;;20.68;35.66
42771;BME280;28426;42.872;25.314;2022-11-03T11:07:45;97389.94;;;20.77;35.28
42771;BME280;28426;42.872;25.314;2022-11-03T11:10:20;97385.56;;;20.88;35.26
42771;BME280;28426;42.872;25.314;2022-11-03T11:15:58;97384.34;;;21.13;35.13
42771;BME280;28426;42.872;25.314;2022-11-03T11:21:57;97376.75;;;21.49;33.95
42771;BME280;28426;42.872;25.314;2022-11-03T11:24:55;97372.03;;;21.62;33.60
42771;BME280;28426;42.872;25.314;2022-11-03T11:27:54;97365.69;;;21.73;34.03
42771;BME280;28426;42.872;25.314;2022-11-03T11:31:01;97364.78;;;21.85;33.57
42771;BME280;28426;42.872;25.314;2022-11-03T11:33:31;97362.19;;;21.95;32.61
42771;BME280;28426;42.872;25.314;2022-11-03T11:36:21;97365.00;;;22.05;33.84
42771;BME280;28426;42.872;25.314;2022-11-03T11:38:56;97359.13;;;22.14;33.76
42771;BME280;28426;42.872;25.314;2022-11-03T11:44:48;97352.22;;;22.28;32.96
42771;BME280;28426;42.872;25.314;2022-11-03T11:47:31;97348.53;;;22.40;33.04
42771;BME280;28426;42.872;25.314;2022-11-03T11:50:28;97344.00;;;22.45;32.82
42771;BME280;28426;42.872;25.314;2022-11-03T11:53:19;97343.78;;;22.52;32.80
42771;BME280;28426;42.872;25.314;2022-11-03T11:55:59;97343.28;;;22.55;32.97
42771;BME280;28426;42.872;25.314;2022-11-03T11:58:37;97342.78;;;22.58;33.10
42771;BME280;28426;42.872;25.314;2022-11-03T12:01:21;97335.75;;;22.63;32.72
42771;BME280;28426;42.872;25.314;2022-11-03T12:03:57;97336.38;;;22.70;33.28
42771;BME280;28426;42.872;25.314;2022-11-03T12:06:32;97333.69;;;22.75;33.09
42771;BME280;28426;42.872;25.314;2022-11-03T12:09:05;97332.09;;;22.79;32.88
42771;BME280;28426;42.872;25.314;2022-11-03T12:11:40;97321.25;;;22.84;32.97
42771;BME280;28426;42.872;25.314;2022-11-03T12:14:24;97324.84;;;22.90;32.83
42771;BME280;28426;42.872;25.314;2022-11-03T12:16:55;97325.41;;;22.97;32.42
42771;BME280;28426;42.872;25.314;2022-11-03T12:19:44;97314.31;;;23.04;31.54
42771;BME280;28426;42.872;25.314;2022-11-03T12:22:39;97319.25;;;23.07;31.09
42771;BME280;28426;42.872;25.314;2022-11-03T12:25:31;97316.47;;;23.02;30.87
42771;BME280;28426;42.872;25.314;2022-11-03T12:28:03;97312.00;;;22.85;30.02
42771;BME280;28426;42.872;25.314;2022-11-03T12:30:34;97312.94;;;22.69;30.86
42771;BME280;28426;42.872;25.314;2022-11-03T12:33:06;97321.69;;;22.48;30.46
42771;BME280;28426;42.872;25.314;2022-11-03T12:35:40;97309.56;;;22.29;30.54
42771;BME280;28426;42.872;25.314;2022-11-03T12:38:10;97308.84;;;22.11;30.69
42771;BME280;28426;42.872;25.314;2022-11-03T12:40:41;97315.50;;;21.98;31.47
42771;BME280;28426;42.872;25.314;2022-11-03T12:43:11;97305.81;;;21.85;31.42
42771;BME280;28426;42.872;25.314;2022-11-03T12:45:42;97317.66;;;21.74;30.97
42771;BME280;28426;42.872;25.314;2022-11-03T12:48:13;97315.03;;;21.62;31.26
42771;BME280;28426;42.872;25.314;2022-11-03T12:50:48;97321.69;;;21.54;31.39
42771;BME280;28426;42.872;25.314;2022-11-03T12:53:19;97318.59;;;21.45;31.96
42771;BME280;28426;42.872;25.314;2022-11-03T12:55:49;97309.00;;;21.37;32.06
42771;BME280;28426;42.872;25.314;2022-11-03T12:58:20;97312.38;;;21.27;32.09
42771;BME280;28426;42.872;25.314;2022-11-03T13:00:51;97312.56;;;21.21;32.26
42771;BME280;28426;42.872;25.314;2022-11-03T13:03:28;97317.66;;;21.17;32.82
42771;BME280;28426;42.872;25.314;2022-11-03T13:06:02;97317.59;;;21.12;32.64
42771;BME280;28426;42.872;25.314;2022-11-03T13:08:36;97316.63;;;21.01;32.89
42771;BME280;28426;42.872;25.314;2022-11-03T13:11:07;97312.41;;;20.93;32.63
42771;BME280;28426;42.872;25.314;2022-11-03T13:13:58;97322.28;;;20.82;32.50
42771;BME280;28426;42.872;25.314;2022-11-03T13:16:28;97315.34;;;20.74;32.80
42771;BME280;28426;42.872;25.314;2022-11-03T13:18:59;97320.69;;;20.69;33.02
42771;BME280;28426;42.872;25.314;2022-11-03T13:21:33;97320.59;;;20.64;33.61
42771;BME280;28426;42.872;25.314;2022-11-03T13:24:04;97324.63;;;20.61;33.40
42771;BME280;28426;42.872;25.314;2022-11-03T13:26:34;97323.47;;;20.57;33.36
42771;BME280;28426;42.872;25.314;2022-11-03T13:29:05;97325.25;;;20.51;33.15
42771;BME280;28426;42.872;25.314;2022-11-03T13:31:36;97326.81;;;20.47;33.58
42771;BME280;28426;42.872;25.314;2022-11-03T13:34:06;97331.06;;;20.43;33.57
42771;BME280;28426;42.872;25.314;2022-11-03T13:36:39;97335.34;;;20.39;34.09
42771;BME280;28426;42.872;25.314;2022-11-03T13:39:10;97329.59;;;20.35;34.47
42771;BME280;28426;42.872;25.314;2022-11-03T13:41:41;97325.47;;;20.33;34.45
42771;BME280;28426;42.872;25.314;2022-11-03T13:44:12;97324.31;;;20.29;33.98